Time;durP1;ratioP1;P1;durP2;ratioP2;P2;SDS_P1;SDS_P2;PMS_P1;PMS_P2;Temp;Humidity;BMP_temperature;BMP_pressure;BME280_temperature;BME280_humidity;BME280_pressure;Samples;Min_cycle;Max_cycle;Signal;HPM_P1;HPM_P2
2022/10/17 00:00:50;;;;;;;12.68;8.35;;;;;;;14.40;96.27;101444.50;4983805;28;20049;-55
2022/10/17 00:03:16;;;;;;;10.57;8.60;;;;;;;14.44;96.60;101439.78;4956841;28;20030;-54
2022/10/17 00:05:46;;;;;;;12.35;8.48;;;;;;;14.43;96.61;101440.75;4987812;28;20038;-55
2022/10/17 00:08:13;;;;;;;8.82;8.00;;;;;;;14.41;95.81;101440.88;4988446;28;20076;-55
2022/10/17 00:10:42;;;;;;;9.05;8.13;;;;;;;14.43;97.39;101446.09;4988012;28;20427;-54
2022/10/17 00:13:08;;;;;;;12.63;9.05;;;;;;;14.53;97.47;101440.03;4989216;28;20022;-55
2022/10/17 00:15:34;;;;;;;9.45;8.52;;;;;;;14.59;96.76;101443.22;4988401;28;20042;-54
2022/10/17 00:18:00;;;;;;;10.00;8.75;;;;;;;14.53;97.01;101444.56;4989268;28;20418;-55
2022/10/17 00:20:25;;;;;;;9.20;8.02;;;;;;;14.48;96.44;101434.13;4990587;28;20053;-55
2022/10/17 00:22:51;;;;;;;9.50;8.57;;;;;;;14.45;97.42;101439.69;4992493;28;20034;-55
2022/10/17 00:25:18;;;;;;;13.32;8.48;;;;;;;14.49;96.86;101430.47;5005810;28;20481;-55
2022/10/17 00:27:43;;;;;;;8.52;7.65;;;;;;;14.45;96.34;101426.31;4991299;28;20031;-55
2022/10/17 00:30:12;;;;;;;10.27;8.13;;;;;;;14.35;96.96;101429.72;4991122;28;20030;-55
2022/10/17 00:32:38;;;;;;;13.85;9.15;;;;;;;14.44;96.98;101431.75;4974031;28;20088;-54
2022/10/17 00:35:06;;;;;;;9.45;7.80;;;;;;;14.45;96.75;101426.31;4990419;28;20055;-54
2022/10/17 00:37:32;;;;;;;8.52;7.82;;;;;;;14.38;95.99;101425.00;4992148;28;20030;-55
2022/10/17 00:39:58;;;;;;;9.90;7.03;;;;;;;14.41;95.85;101419.47;4990908;28;20197;-54
2022/10/17 00:42:24;;;;;;;9.05;8.18;;;;;;;14.40;96.26;101423.09;4991405;28;20041;-55
2022/10/17 00:44:50;;;;;;;12.00;9.93;;;;;;;14.42;98.34;101421.16;4973613;28;20038;-55
2022/10/17 00:47:23;;;;;;;11.63;9.35;;;;;;;14.43;98.29;101419.34;4991441;28;20031;-55
2022/10/17 00:49:49;;;;;;;12.18;10.32;;;;;;;14.39;98.84;101426.75;4969681;28;20042;-55
2022/10/17 00:52:22;;;;;;;12.35;10.10;;;;;;;14.41;99.11;101423.94;4966317;28;20034;-55
2022/10/17 00:54:57;;;;;;;12.50;10.25;;;;;;;14.41;99.86;101421.25;4991064;28;20023;-55
2022/10/17 00:57:23;;;;;;;12.35;10.65;;;;;;;14.41;99.68;101413.22;4987827;28;20080;-55
2022/10/17 00:59:53;;;;;;;10.30;9.27;;;;;;;14.48;98.74;101422.56;4990044;28;20362;-55
2022/10/17 01:02:20;;;;;;;12.32;11.02;;;;;;;14.53;100.00;101423.13;4990781;28;20042;-56
2022/10/17 01:04:50;;;;;;;12.65;11.13;;;;;;;14.50;100.00;101425.97;4987581;28;20038;-55
2022/10/17 01:07:15;;;;;;;15.60;10.95;;;;;;;14.56;100.00;101419.34;4970843;28;20034;-55
2022/10/17 01:09:44;;;;;;;12.15;11.02;;;;;;;14.51;100.00;101423.22;4972827;28;20135;-55
2022/10/17 01:12:37;;;;;;;11.63;10.43;;;;;;;14.50;100.00;101417.94;4991557;28;20026;-55
2022/10/17 01:15:39;;;;;;;13.40;9.65;;;;;;;14.55;100.00;101423.84;5004989;28;20535;-55
2022/10/17 01:18:23;;;;;;;18.67;11.25;;;;;;;14.54;100.00;101425.69;4990132;28;20038;-55
2022/10/17 01:21:19;;;;;;;12.27;11.05;;;;;;;14.54;100.00;101425.69;4986634;28;20436;-56
2022/10/17 01:24:07;;;;;;;13.15;10.88;;;;;;;14.59;100.00;101421.81;4989172;28;20526;-55
2022/10/17 01:27:03;;;;;;;17.17;11.52;;;;;;;14.60;100.00;101416.38;4987092;28;20038;-55
2022/10/17 01:30:10;;;;;;;14.27;11.07;;;;;;;14.64;100.00;101414.31;4989264;28;20034;-55
2022/10/17 01:32:50;;;;;;;12.23;11.02;;;;;;;14.62;100.00;101411.78;4961991;28;20138;-55
2022/10/17 01:35:24;;;;;;;11.77;10.57;;;;;;;14.62;100.00;101408.22;4984140;28;20561;-55
2022/10/17 01:38:18;;;;;;;12.95;11.00;;;;;;;14.64;100.00;101412.50;5049666;28;20080;-55
2022/10/17 01:40:56;;;;;;;16.67;11.20;;;;;;;14.61;100.00;101409.19;4968094;28;20734;-55
2022/10/17 01:43:43;;;;;;;15.32;11.75;;;;;;;14.58;100.00;101407.59;4986705;28;20018;-55
2022/10/17 01:46:21;;;;;;;12.70;10.90;;;;;;;14.53;100.00;101399.03;4955954;28;20038;-55
2022/10/17 01:48:46;;;;;;;14.75;11.73;;;;;;;14.59;100.00;101401.28;4974879;28;20034;-55
2022/10/17 01:51:19;;;;;;;15.05;12.10;;;;;;;14.50;100.00;101389.38;4971618;28;20046;-54
2022/10/17 01:54:00;;;;;;;16.30;12.40;;;;;;;14.62;100.00;101405.53;4967659;28;20041;-55
2022/10/17 01:56:28;;;;;;;13.50;11.95;;;;;;;14.59;100.00;101414.66;4988777;28;20038;-54
2022/10/17 01:59:18;;;;;;;13.30;11.65;;;;;;;14.63;100.00;101420.66;4990235;28;20032;-54
2022/10/17 02:01:47;;;;;;;15.90;11.45;;;;;;;14.65;100.00;101408.03;4990098;28;20030;-54
2022/10/17 02:04:12;;;;;;;13.35;10.40;;;;;;;14.66;100.00;101407.91;4980268;28;20104;-55
2022/10/17 02:06:38;;;;;;;14.55;11.90;;;;;;;14.63;100.00;101399.22;4958200;28;20485;-54
2022/10/17 02:09:18;;;;;;;13.77;11.63;;;;;;;14.66;100.00;101385.63;4969398;28;20066;-55
2022/10/17 02:11:56;;;;;;;17.25;11.95;;;;;;;14.65;100.00;101384.78;4976609;28;20033;-54
2022/10/17 02:14:37;;;;;;;12.73;11.43;;;;;;;14.66;100.00;101383.81;4990189;28;20022;-55
2022/10/17 02:17:29;;;;;;;14.77;11.45;;;;;;;14.67;100.00;101384.66;4989920;28;20107;-54
2022/10/17 02:20:20;;;;;;;13.38;10.73;;;;;;;14.68;100.00;101378.34;4971627;28;20109;-55
2022/10/17 02:23:04;;;;;;;14.07;11.10;;;;;;;14.61;100.00;101388.63;4981506;28;20133;-54
2022/10/17 02:25:35;;;;;;;14.40;11.15;;;;;;;14.70;100.00;101385.28;4983558;28;20050;-55
2022/10/17 02:28:08;;;;;;;12.02;10.70;;;;;;;14.72;100.00;101388.72;4989648;28;20366;-54
2022/10/17 02:30:53;;;;;;;12.88;11.15;;;;;;;14.68;100.00;101381.03;4989618;28;20126;-54
2022/10/17 02:33:21;;;;;;;18.40;11.23;;;;;;;14.77;100.00;101389.25;4973147;28;20030;-54
2022/10/17 02:35:52;;;;;;;13.85;10.57;;;;;;;14.79;100.00;101383.75;4988406;28;20489;-54
2022/10/17 02:38:20;;;;;;;14.05;11.07;;;;;;;14.84;100.00;101386.97;4990112;28;20464;-55
2022/10/17 02:40:52;;;;;;;11.73;10.52;;;;;;;14.82;100.00;101396.09;4979267;28;20370;-55
2022/10/17 02:43:19;;;;;;;16.15;10.80;;;;;;;14.87;100.00;101383.22;4990480;28;20022;-54
2022/10/17 02:45:46;;;;;;;14.50;10.95;;;;;;;14.86;100.00;101387.72;4985431;28;20075;-55
2022/10/17 02:48:27;;;;;;;14.73;10.68;;;;;;;14.90;100.00;101383.84;4990331;28;20080;-55
2022/10/17 02:50:58;;;;;;;12.85;10.25;;;;;;;14.85;100.00;101388.66;4977238;28;20380;-55
2022/10/17 02:53:31;;;;;;;12.77;10.90;;;;;;;14.86;100.00;101389.56;4970755;28;20567;-55
2022/10/17 02:56:01;;;;;;;19.90;10.85;;;;;;;14.84;100.00;101388.81;4954157;28;20062;-55
2022/10/17 02:58:32;;;;;;;15.93;10.90;;;;;;;14.81;100.00;101375.63;4984301;28;20042;-54
2022/10/17 03:00:58;;;;;;;11.45;10.15;;;;;;;14.85;100.00;101380.63;4986870;28;20026;-54
2022/10/17 03:03:29;;;;;;;13.13;10.38;;;;;;;14.81;100.00;101381.84;4988242;28;20061;-54
2022/10/17 03:05:55;;;;;;;14.15;10.73;;;;;;;14.78;100.00;101384.75;4987427;28;20053;-54
2022/10/17 03:08:23;;;;;;;12.68;11.27;;;;;;;14.81;100.00;101381.84;4989347;28;20018;-55
2022/10/17 03:10:49;;;;;;;13.35;11.05;;;;;;;14.84;100.00;101386.13;5003763;28;20045;-55
2022/10/17 03:13:15;;;;;;;16.17;10.88;;;;;;;14.86;100.00;101386.88;4989965;28;20022;-55
2022/10/17 03:15:41;;;;;;;21.13;10.75;;;;;;;14.81;100.00;101372.97;4976517;28;20030;-55
2022/10/17 03:18:07;;;;;;;12.23;10.70;;;;;;;14.87;100.00;101378.72;4979947;28;20095;-54
2022/10/17 03:20:32;;;;;;;14.02;10.88;;;;;;;14.87;100.00;101383.22;4970823;28;20121;-55
2022/10/17 03:22:57;;;;;;;11.70;10.50;;;;;;;14.86;100.00;101378.84;4972009;28;20136;-55
2022/10/17 03:25:25;;;;;;;11.90;10.57;;;;;;;14.87;100.00;101393.94;4988616;28;20564;-55
2022/10/17 03:27:51;;;;;;;15.40;10.02;;;;;;;14.84;100.00;101386.97;4989009;28;20090;-54
2022/10/17 03:30:17;;;;;;;13.75;10.85;;;;;;;14.83;100.00;101393.31;4981333;28;20424;-55
2022/10/17 03:32:42;;;;;;;14.70;11.25;;;;;;;14.84;100.00;101391.47;4987872;28;20031;-55
2022/10/17 03:35:08;;;;;;;15.60;10.48;;;;;;;14.82;100.00;101391.56;4982879;28;20046;-55
2022/10/17 03:37:33;;;;;;;15.70;10.55;;;;;;;14.82;100.00;101388.03;4987839;28;20034;-54
2022/10/17 03:40:01;;;;;;;12.43;10.70;;;;;;;14.77;100.00;101391.94;4988971;28;20382;-55
2022/10/17 03:42:27;;;;;;;11.82;9.82;;;;;;;14.83;100.00;101389.78;4988072;28;20046;-55
2022/10/17 03:44:52;;;;;;;11.32;10.10;;;;;;;14.78;100.00;101390.09;4982518;28;20049;-55
2022/10/17 03:47:18;;;;;;;15.35;11.07;;;;;;;14.77;100.00;101373.19;4970003;28;20100;-55
2022/10/17 03:49:43;;;;;;;14.98;10.65;;;;;;;14.81;100.00;101372.97;4968972;28;20066;-55
2022/10/17 03:52:13;;;;;;;11.68;10.57;;;;;;;14.80;100.00;101366.75;4975593;28;20041;-55
2022/10/17 03:54:41;;;;;;;12.35;10.55;;;;;;;14.83;100.00;101368.34;4991323;28;20099;-55
2022/10/17 03:57:08;;;;;;;16.27;10.52;;;;;;;14.84;100.00;101373.59;4968504;28;20039;-55
2022/10/17 03:59:34;;;;;;;14.60;10.70;;;;;;;14.82;100.00;101372.81;4955663;28;20035;-55
2022/10/17 04:01:59;;;;;;;16.73;9.55;;;;;;;14.88;100.00;101390.28;4974406;28;20061;-55
2022/10/17 04:04:29;;;;;;;12.80;9.77;;;;;;;14.86;100.00;101378.84;4983101;28;20068;-55
2022/10/17 04:06:55;;;;;;;12.73;9.60;;;;;;;14.95;100.00;101388.88;4984410;28;20035;-56
2022/10/17 04:09:20;;;;;;;12.38;10.02;;;;;;;14.99;100.00;101390.34;4987449;28;20076;-55
2022/10/17 04:11:46;;;;;;;14.70;10.57;;;;;;;15.01;100.00;101395.63;4962343;28;20038;-55
2022/10/17 04:14:13;;;;;;;13.18;10.25;;;;;;;15.09;100.00;101406.59;4972860;28;20491;-55
2022/10/17 04:16:38;;;;;;;13.45;10.05;;;;;;;15.05;100.00;101389.06;4973465;28;20499;-55
2022/10/17 04:19:04;;;;;;;12.00;10.02;;;;;;;15.11;100.00;101402.84;4992050;28;20025;-55
2022/10/17 04:21:32;;;;;;;15.65;10.00;;;;;;;15.11;100.00;101393.97;5001056;28;20030;-55
2022/10/17 04:24:02;;;;;;;13.95;10.07;;;;;;;15.12;100.00;101398.38;4977097;28;20034;-55
2022/10/17 04:26:27;;;;;;;13.23;10.35;;;;;;;15.09;100.00;101406.59;4962740;28;20141;-55
2022/10/17 04:28:53;;;;;;;12.32;10.15;;;;;;;15.11;100.00;101413.56;4955509;28;20118;-54
2022/10/17 04:31:19;;;;;;;12.77;10.23;;;;;;;15.09;100.00;101410.16;4955534;28;20034;-55
2022/10/17 04:33:48;;;;;;;16.60;9.93;;;;;;;15.07;100.00;101417.44;4983298;28;20046;-54
2022/10/17 04:36:20;;;;;;;15.88;10.38;;;;;;;15.07;100.00;101424.63;4990760;28;20027;-55
2022/10/17 04:38:47;;;;;;;12.32;10.15;;;;;;;15.04;100.00;101423.03;4963594;28;20417;-55
2022/10/17 04:41:15;;;;;;;12.13;10.18;;;;;;;15.03;100.00;101437.41;4986316;28;20040;-55
2022/10/17 04:43:42;;;;;;;11.70;10.23;;;;;;;15.02;100.00;101442.84;4986974;28;20027;-55
2022/10/17 04:46:10;;;;;;;10.85;9.68;;;;;;;15.03;100.00;101440.09;4956187;28;20023;-55
2022/10/17 04:48:36;;;;;;;13.43;10.10;;;;;;;15.01;100.00;101433.97;4971335;28;20019;-55
2022/10/17 04:51:16;;;;;;;13.80;10.88;;;;;;;15.04;100.00;101443.63;4986477;28;20530;-55
2022/10/17 04:53:43;;;;;;;14.63;10.20;;;;;;;15.02;100.00;101446.38;4986516;28;20049;-55
2022/10/17 04:56:09;;;;;;;15.23;10.23;;;;;;;15.02;100.00;101456.25;4994548;28;20040;-55
2022/10/17 04:58:35;;;;;;;10.68;9.27;;;;;;;14.99;100.00;101441.25;4992088;28;20036;-55
2022/10/17 05:01:13;;;;;;;12.13;9.27;;;;;;;15.02;100.00;101448.22;4973608;28;20449;-54
2022/10/17 05:03:38;;;;;;;14.75;10.25;;;;;;;14.99;100.00;101452.81;4990870;28;20105;-54
2022/10/17 05:06:10;;;;;;;14.23;9.98;;;;;;;14.99;100.00;101457.31;4991504;28;20126;-54
2022/10/17 05:08:38;;;;;;;10.68;9.32;;;;;;;15.04;100.00;101457.84;4978254;28;20030;-54
2022/10/17 05:11:05;;;;;;;19.17;9.90;;;;;;;15.04;100.00;101448.97;4974156;28;20031;-54
2022/10/17 05:13:31;;;;;;;11.10;9.25;;;;;;;15.04;100.00;101438.25;4986994;28;20030;-54
2022/10/17 05:15:58;;;;;;;13.50;9.98;;;;;;;15.07;100.00;101444.25;4989315;28;20038;-54
2022/10/17 05:18:24;;;;;;;15.00;10.07;;;;;;;15.08;100.00;101451.31;4985752;28;20546;-55
2022/10/17 05:20:49;;;;;;;12.25;9.60;;;;;;;15.10;100.00;101457.41;4956497;28;20026;-55
2022/10/17 05:23:15;;;;;;;10.50;9.40;;;;;;;15.05;100.00;101448.00;4974166;28;20041;-55
2022/10/17 05:25:40;;;;;;;12.63;9.30;;;;;;;15.15;100.00;101463.31;4987150;28;20565;-55
2022/10/17 05:28:07;;;;;;;10.48;9.38;;;;;;;15.21;100.00;101464.69;4976929;28;20034;-54
2022/10/17 05:30:33;;;;;;;11.45;9.05;;;;;;;15.23;100.00;101470.78;4972582;28;20027;-55
2022/10/17 05:33:02;;;;;;;15.35;9.63;;;;;;;15.30;100.00;101474.72;4972227;28;20045;-55
2022/10/17 05:35:28;;;;;;;13.73;9.70;;;;;;;15.30;100.00;101463.16;4979998;28;20029;-55
2022/10/17 05:37:53;;;;;;;11.60;9.45;;;;;;;15.31;100.00;101472.91;4991698;28;20373;-54
2022/10/17 05:40:18;;;;;;;14.65;9.90;;;;;;;15.31;100.00;101476.44;4973063;28;20499;-55
2022/10/17 05:42:48;;;;;;;13.13;8.90;;;;;;;15.28;100.00;101476.66;4990273;28;20563;-55
2022/10/17 05:45:14;;;;;;;13.13;9.15;;;;;;;15.32;100.00;101478.13;4982417;28;20492;-55
2022/10/17 05:47:40;;;;;;;12.25;8.98;;;;;;;15.36;100.00;101485.00;4971573;28;20039;-55
2022/10/17 05:50:07;;;;;;;10.93;9.40;;;;;;;15.33;100.00;101479.03;4977606;28;20038;-54
2022/10/17 05:52:33;;;;;;;9.77;8.70;;;;;;;15.35;100.00;101487.78;4989681;28;20033;-55
2022/10/17 05:54:59;;;;;;;15.82;9.80;;;;;;;15.32;100.00;101477.28;4990268;28;20117;-55
2022/10/17 05:57:25;;;;;;;11.98;10.02;;;;;;;15.35;100.00;101482.41;4971604;28;20121;-54
2022/10/17 05:59:50;;;;;;;11.10;8.68;;;;;;;15.38;100.00;101482.19;4990704;28;20102;-55
2022/10/17 06:02:16;;;;;;;11.80;8.75;;;;;;;15.33;100.00;101477.19;4957433;28;20154;-54
2022/10/17 06:04:44;;;;;;;10.38;8.45;;;;;;;15.38;100.00;101485.75;4979890;28;20030;-54
2022/10/17 06:07:12;;;;;;;10.18;9.02;;;;;;;15.38;100.00;101488.44;4990335;28;20034;-55
2022/10/17 06:09:38;;;;;;;13.93;8.82;;;;;;;15.42;100.00;101487.22;4990670;28;20554;-55
2022/10/17 06:12:04;;;;;;;11.80;9.38;;;;;;;15.43;100.00;101488.09;4989724;28;20125;-54
2022/10/17 06:14:29;;;;;;;10.73;8.70;;;;;;;15.44;100.00;101492.47;4990283;28;20472;-55
2022/10/17 06:16:55;;;;;;;10.82;8.80;;;;;;;15.45;100.00;101491.50;4972019;28;20038;-55
2022/10/17 06:19:20;;;;;;;11.88;8.68;;;;;;;15.45;100.00;101489.69;5005100;28;20027;-55
2022/10/17 06:21:46;;;;;;;11.65;8.85;;;;;;;15.49;100.00;101482.28;4990485;28;20045;-55
2022/10/17 06:24:12;;;;;;;11.85;8.68;;;;;;;15.48;100.00;101490.44;4989440;28;20455;-55
2022/10/17 06:26:37;;;;;;;9.40;8.45;;;;;;;15.48;100.00;101493.13;4973500;28;20489;-55
2022/10/17 06:29:03;;;;;;;11.48;8.20;;;;;;;15.50;100.00;101491.16;4953604;28;20043;-55
2022/10/17 06:31:28;;;;;;;9.38;8.15;;;;;;;15.52;100.00;101490.09;4977766;28;20269;-55
2022/10/17 06:33:53;;;;;;;11.88;8.75;;;;;;;15.54;100.00;101488.16;4988802;28;20049;-55
2022/10/17 06:36:19;;;;;;;10.68;8.23;;;;;;;15.56;100.00;101494.28;4990059;28;20065;-55
2022/10/17 06:38:45;;;;;;;12.88;9.10;;;;;;;15.59;100.00;101495.88;4973068;28;20038;-55
2022/10/17 06:41:13;;;;;;;9.70;8.55;;;;;;;15.57;100.00;101501.34;4972124;28;20434;-55
2022/10/17 06:43:45;;;;;;;11.77;8.40;;;;;;;15.54;100.00;101487.31;4990130;28;20400;-54
2022/10/17 06:46:11;;;;;;;12.48;8.30;;;;;;;15.63;100.00;101516.13;4970233;28;20030;-54
2022/10/17 06:48:37;;;;;;;17.15;8.40;;;;;;;15.66;100.00;101510.53;4989693;28;20045;-55
2022/10/17 06:51:03;;;;;;;10.48;7.50;;;;;;;15.67;100.00;101513.13;5000407;28;22388;-55
2022/10/17 06:53:31;;;;;;;11.93;8.45;;;;;;;15.71;100.00;101518.28;4989382;28;20026;-55
2022/10/17 06:56:03;;;;;;;10.85;8.55;;;;;;;15.75;100.00;101520.59;4988871;28;20041;-55
2022/10/17 06:58:34;;;;;;;8.98;8.10;;;;;;;15.77;100.00;101512.47;4989926;28;20026;-55
2022/10/17 07:01:02;;;;;;;11.85;7.93;;;;;;;15.81;100.00;101512.09;4989288;28;20121;-55
2022/10/17 07:03:28;;;;;;;10.60;8.32;;;;;;;15.83;100.00;101515.53;4988232;28;20583;-55
2022/10/17 07:05:54;;;;;;;8.55;7.68;;;;;;;15.85;100.00;101520.75;4980537;28;20072;-55
2022/10/17 07:08:20;;;;;;;9.40;7.68;;;;;;;15.89;100.00;101523.13;4982998;28;20072;-55
2022/10/17 07:10:46;;;;;;;10.75;7.68;;;;;;;15.90;100.00;101524.81;4989391;28;20054;-55
2022/10/17 07:13:14;;;;;;;11.40;7.38;;;;;;;15.93;100.00;101528.25;4989944;28;20473;-55
2022/10/17 07:15:40;;;;;;;11.60;7.47;;;;;;;15.96;100.00;101525.34;4987940;28;20034;-55
2022/10/17 07:18:06;;;;;;;12.38;8.05;;;;;;;15.96;100.00;101515.47;4987938;28;20377;-55
2022/10/17 07:20:35;;;;;;;10.77;8.00;;;;;;;16.01;100.00;101529.38;4988367;28;20018;-54
2022/10/17 07:23:00;;;;;;;14.55;8.63;;;;;;;16.04;100.00;101531.00;4989196;28;20023;-55
2022/10/17 07:25:28;;;;;;;9.95;7.10;;;;;;;15.99;100.00;101530.47;4983088;28;20065;-55
2022/10/17 07:27:53;;;;;;;9.52;6.47;;;;;;;16.04;100.00;101531.00;4969231;28;20374;-55
2022/10/17 07:30:20;;;;;;;15.60;7.18;;;;;;;16.02;100.00;101540.97;4986158;28;20087;-55
2022/10/17 07:32:47;;;;;;;9.85;7.38;;;;;;;16.02;100.00;101546.34;4986575;28;20045;-55
2022/10/17 07:35:13;;;;;;;10.13;7.40;;;;;;;16.07;100.00;101571.00;4969996;28;20117;-55
2022/10/17 07:37:39;;;;;;;16.10;7.32;;;;;;;16.09;100.00;101599.44;4988032;28;20113;-55
2022/10/17 07:40:06;;;;;;;11.80;7.40;;;;;;;16.09;100.00;101617.38;4988785;28;20027;-55
2022/10/17 07:42:34;;;;;;;9.77;7.45;;;;;;;16.05;100.00;101637.34;4971251;28;20427;-55
2022/10/17 07:45:02;;;;;;;13.77;7.43;;;;;;;16.15;100.00;101654.50;4970807;28;20034;-55
2022/10/17 07:47:29;;;;;;;10.05;6.95;;;;;;;16.13;100.00;101661.81;4972046;28;20164;-55
2022/10/17 07:49:57;;;;;;;14.05;7.43;;;;;;;16.11;100.00;101674.47;5002848;28;20031;-55
2022/10/17 07:52:22;;;;;;;12.02;7.82;;;;;;;16.09;100.00;101676.44;4967840;28;20045;-55
2022/10/17 07:54:48;;;;;;;9.38;7.35;;;;;;;16.08;100.00;101680.91;4962413;28;20027;-55
2022/10/17 07:57:14;;;;;;;11.82;7.88;;;;;;;16.09;100.00;101679.13;4987397;28;20439;-55
2022/10/17 07:59:39;;;;;;;13.10;7.30;;;;;;;16.07;100.00;101679.22;4984685;28;20469;-55
2022/10/17 08:02:06;;;;;;;15.10;7.40;;;;;;;16.09;100.00;101679.97;4987473;28;20038;-55
2022/10/17 08:04:33;;;;;;;11.00;7.32;;;;;;;16.06;100.00;101684.66;4986535;28;20113;-55
2022/10/17 08:06:59;;;;;;;11.10;7.22;;;;;;;16.09;100.00;101679.13;4969960;28;20038;-55
2022/10/17 08:09:25;;;;;;;9.68;7.10;;;;;;;16.10;100.00;101678.97;4988280;28;20081;-55
2022/10/17 08:11:50;;;;;;;8.82;7.47;;;;;;;16.09;100.00;101679.97;4971316;28;20492;-55
2022/10/17 08:14:16;;;;;;;9.60;7.53;;;;;;;16.07;100.00;101684.56;4955609;28;21178;-54
2022/10/17 08:16:45;;;;;;;9.75;8.13;;;;;;;16.07;100.00;101705.19;4988626;28;20418;-54
2022/10/17 08:19:11;;;;;;;16.42;8.30;;;;;;;16.04;100.00;101719.69;4968771;28;20541;-55
2022/10/17 08:21:37;;;;;;;12.10;8.45;;;;;;;16.01;100.00;101746.75;4970307;28;20038;-54
2022/10/17 08:24:03;;;;;;;9.68;8.23;;;;;;;16.01;100.00;101748.56;4953827;28;20034;-54
2022/10/17 08:26:31;;;;;;;13.00;7.97;;;;;;;16.00;100.00;101739.66;4987934;28;20034;-54
2022/10/17 08:28:57;;;;;;;12.02;8.82;;;;;;;15.99;100.00;101743.31;4987466;28;20078;-54
2022/10/17 08:31:22;;;;;;;12.30;8.73;;;;;;;16.01;100.00;101748.56;4971037;28;20137;-54
2022/10/17 08:33:49;;;;;;;9.60;8.52;;;;;;;16.00;100.00;101750.41;5003028;28;20058;-55
2022/10/17 08:36:17;;;;;;;12.23;8.90;;;;;;;15.97;100.00;101745.25;4970030;28;20489;-55
2022/10/17 08:38:43;;;;;;;12.82;9.05;;;;;;;16.00;100.00;101745.03;4988485;28;20380;-55
2022/10/17 08:41:33;;;;;;;13.57;9.32;;;;;;;16.01;100.00;101745.88;4991072;28;20473;-55
2022/10/17 08:44:16;;;;;;;;;;;;;;;16.05;100.00;101758.09;4984782;28;20568;-55
2022/10/17 08:46:45;;;;;;;15.93;9.20;;;;;;;15.99;100.00;101754.03;4973843;28;19931;-55
2022/10/17 08:49:29;;;;;;;13.65;9.18;;;;;;;15.97;100.00;101734.53;4990235;28;20018;-55
2022/10/17 08:52:06;;;;;;;12.57;9.50;;;;;;;15.94;100.00;101723.13;4989484;28;20056;-55
2022/10/17 08:54:41;;;;;;;17.50;9.43;;;;;;;16.01;100.00;101727.97;4997598;28;20026;-55
2022/10/17 08:57:12;;;;;;;13.88;9.70;;;;;;;16.04;100.00;101733.09;4969196;28;20057;-55
2022/10/17 08:59:41;;;;;;;12.35;9.55;;;;;;;16.05;100.00;101736.63;4980849;28;20422;-55
2022/10/17 09:02:31;;;;;;;14.63;8.52;;;;;;;16.06;100.00;101732.97;4991109;28;20385;-56
2022/10/17 09:05:21;;;;;;;15.70;9.27;;;;;;;16.05;100.00;101736.63;4990707;28;20126;-56
2022/10/17 09:08:08;;;;;;;13.52;9.35;;;;;;;16.06;100.00;101749.97;4991971;28;20034;-55
2022/10/17 09:10:36;;;;;;;13.13;9.68;;;;;;;16.05;100.00;101758.09;4974234;28;20102;-55
2022/10/17 09:13:17;;;;;;;11.98;9.32;;;;;;;16.03;100.00;101784.19;4973977;28;20039;-55
2022/10/17 09:15:51;;;;;;;13.65;9.82;;;;;;;16.02;100.00;101793.22;4991571;28;20061;-55
2022/10/17 09:18:31;;;;;;;17.30;10.02;;;;;;;16.03;100.00;101805.66;4991653;28;20030;-55
2022/10/17 09:21:11;;;;;;;18.63;10.32;;;;;;;15.99;100.00;101813.06;4990663;28;20030;-55
2022/10/17 09:23:45;;;;;;;14.15;9.77;;;;;;;15.92;100.00;101806.44;4991276;28;20508;-55
2022/10/17 09:26:11;;;;;;;14.23;11.13;;;;;;;15.95;100.00;101778.53;4991000;28;20412;-55
2022/10/17 09:28:39;;;;;;;17.40;11.23;;;;;;;15.95;100.00;101741.81;4991336;28;20034;-54
2022/10/17 09:31:13;;;;;;;13.02;10.18;;;;;;;15.92;100.00;101707.16;4991363;28;20385;-54
2022/10/17 09:33:42;;;;;;;13.77;10.27;;;;;;;15.98;100.00;101697.81;4990899;28;20384;-55
2022/10/17 09:36:31;;;;;;;13.60;10.52;;;;;;;15.96;100.00;101708.63;4991351;28;20069;-55
2022/10/17 09:39:18;;;;;;;14.43;10.50;;;;;;;16.07;100.00;101726.66;4990546;28;20469;-55
2022/10/17 09:41:50;;;;;;;11.23;9.73;;;;;;;16.06;100.00;101747.28;4973135;28;20060;-55
2022/10/17 09:44:28;;;;;;;16.70;9.35;;;;;;;16.01;100.00;101748.56;4971809;28;20027;-55
2022/10/17 09:47:22;;;;;;;12.23;9.98;;;;;;;16.09;100.00;101773.91;4971633;28;20027;-55
2022/10/17 09:49:48;;;;;;;14.88;9.48;;;;;;;16.08;100.00;101776.66;4970875;28;20115;-55
2022/10/17 09:52:18;;;;;;;13.20;9.75;;;;;;;16.01;100.00;101746.75;4987089;28;20058;-56
2022/10/17 09:54:52;;;;;;;12.65;9.70;;;;;;;16.08;100.00;101755.19;4990624;28;20549;-55
2022/10/17 09:57:19;;;;;;;16.65;9.80;;;;;;;16.10;100.00;101742.53;4990809;28;20370;-55
2022/10/17 10:00:00;;;;;;;11.32;9.95;;;;;;;16.13;100.00;101737.81;4990879;28;20037;-55
2022/10/17 10:02:27;;;;;;;10.95;9.85;;;;;;;16.12;100.00;101736.09;4990539;28;20507;-55
2022/10/17 10:04:57;;;;;;;12.35;9.85;;;;;;;16.11;100.00;101737.03;4990645;28;20038;-55
2022/10/17 10:07:24;;;;;;;14.45;9.13;;;;;;;16.16;100.00;101757.34;4973464;28;20068;-55
2022/10/17 10:09:50;;;;;;;11.13;9.60;;;;;;;16.17;100.00;101741.13;4990390;28;20366;-55
2022/10/17 10:12:22;;;;;;;12.43;10.23;;;;;;;16.15;100.00;101758.28;4990486;28;20051;-55
2022/10/17 10:14:49;;;;;;;11.90;9.02;;;;;;;16.16;100.00;101770.78;4990796;28;20399;-55
2022/10/17 10:17:35;;;;;;;12.38;9.38;;;;;;;16.16;100.00;101774.31;4973066;28;20022;-55
2022/10/17 10:20:03;;;;;;;12.10;9.55;;;;;;;16.15;100.00;101780.66;4990072;28;20026;-55
2022/10/17 10:22:31;;;;;;;12.27;8.57;;;;;;;16.15;100.00;101791.38;5000058;28;20195;-55
2022/10/17 10:25:16;;;;;;;12.77;8.82;;;;;;;16.17;100.00;101800.16;4972182;28;20054;-55
2022/10/17 10:27:46;;;;;;;14.05;9.90;;;;;;;16.19;100.00;101802.75;4970336;28;20076;-56
2022/10/17 10:30:29;;;;;;;11.65;8.70;;;;;;;16.20;100.00;101804.47;4990411;28;20837;-55
2022/10/17 10:32:58;;;;;;;9.27;8.30;;;;;;;16.19;100.00;101802.75;4989947;28;20192;-55
2022/10/17 10:35:36;;;;;;;14.65;8.35;;;;;;;16.24;100.00;101803.28;4990045;28;20107;-55
2022/10/17 10:38:16;;;;;;;11.32;7.88;;;;;;;16.25;100.00;101816.59;4989899;28;20469;-55
2022/10/17 10:40:51;;;;;;;9.00;7.30;;;;;;;16.30;100.00;101827.00;4972490;28;20033;-54
2022/10/17 10:43:40;;;;;;;9.75;7.20;;;;;;;16.32;100.00;101844.72;4989911;28;20392;-55
2022/10/17 10:46:23;;;;;;;9.93;7.38;;;;;;;16.35;100.00;101857.94;4972796;28;20030;-55
2022/10/17 10:49:00;;;;;;;10.98;7.55;;;;;;;16.35;100.00;101867.78;4990077;28;20025;-55
2022/10/17 10:51:34;;;;;;;8.77;7.40;;;;;;;16.32;100.00;101868.91;4990124;28;20033;-56
2022/10/17 10:54:28;;;;;;;13.23;7.45;;;;;;;16.34;100.00;101872.31;4988785;28;20036;-55
2022/10/17 10:56:58;;;;;;;9.77;7.40;;;;;;;16.30;100.00;101861.91;4989946;28;20022;-55
2022/10/17 10:59:27;;;;;;;10.65;7.80;;;;;;;16.32;100.00;101858.16;4989817;28;20128;-55
2022/10/17 11:02:21;;;;;;;13.93;8.25;;;;;;;16.31;100.00;101863.63;4989688;28;20035;-55
2022/10/17 11:05:16;;;;;;;8.40;7.53;;;;;;;16.36;100.00;101869.53;4972023;28;20049;-55
2022/10/17 11:07:57;;;;;;;10.00;8.27;;;;;;;16.35;100.00;101873.16;4989741;28;20492;-55
2022/10/17 11:11:01;;;;;;;9.48;7.50;;;;;;;16.39;100.00;101868.47;4972474;28;20022;-55
2022/10/17 11:13:44;;;;;;;11.50;8.88;;;;;;;16.39;100.00;101872.00;4891675;28;20148;-55
2022/10/17 11:16:19;;;;;;;8.80;7.70;;;;;;;16.40;100.00;101879.06;4964449;28;20488;-55
2022/10/17 11:19:24;;;;;;;13.70;8.77;;;;;;;16.44;100.00;101885.06;4989358;28;20031;-55
2022/10/17 11:22:04;;;;;;;13.07;8.27;;;;;;;16.44;100.00;101887.75;4989371;28;20029;-54
2022/10/17 11:24:47;;;;;;;10.98;9.30;;;;;;;16.44;100.00;101898.50;4989518;28;20058;-54
2022/10/17 11:27:13;;;;;;;10.00;8.80;;;;;;;16.44;100.00;101903.88;4989620;28;20049;-54